Airfield :
LOGIN :

Register | Disclaimer

   EN    FR    IT 

 










Legend :    VFR   Marginal VFR   IFR   Intensive IFR   Very Intensive IFR
Visi :
Ceiling :
>= 8 km
>= 3000ft
5 to 8 km
1000 to 3000 ft
1500m to 5 km
500 to 1000 ft
800 to 1500m
200 to 500 ft
< 800m
< 200 ft
Symbols :   Thunderstorms  Fog  Heavy snow  Heavy precipitations  Wind > 20 kt
SIGMETs :     Misc.  Thunderstorms  Icing  Turbulence  Mountain Waves  Volcanic Ashes







- Airport Elevation : 18 ft
- IATA code : AJA
- Download approach charts


LFKJ - Ajaccio

CURRENT METAR :
  • 301630Z AUTO 22007KT CAVOK 19/08 Q1013 NOSIG

EXPIRED METARs :
  • 301600Z 22006KT 9999 FEW046 SCT260 20/05 Q1013 NOSIG
  • 301530Z 22005KT 9999 FEW046 SCT260 20/07 Q1013 NOSIG
  • 301500Z 22006KT 9999 FEW046 19/07 Q1013 NOSIG
  • 301430Z 23008KT 9999 FEW046 21/10 Q1014 NOSIG
  • 301400Z 23010KT 9999 FEW046 20/10 Q1014 NOSIG

TAF AMD TAF LFKJ
Valid from the 30 at 15:00 until the 01 at 15:00 UTC


301429Z 3015/0115 24010KT 9999 FEW045
BECMG 3021/3023 08005KT
TEMPO 0105/0110 30015G25KT RA SCT030 BKN060
BECMG 0111/0113 24010KT
ATIS : +33 4 95 23 59 85
No reported NOTAMs for that airfield.
2 SIGMETs reported for the Marseille FIR (LFMM) :
 
Embedded thunderstorms
LFMM SIGMET 5 VALID 301700/301900 LFPW
LFMM MARSEILLE FIR/UIR EMBD TS OBS WI N4300 E00230 - N4545 E00300 - N4545 E00315 - N4300 E00245 TOP FL300 MOV E 20KT NC=
Severe turbulence
LFMM SIGMET 4 VALID 301600/302000 LFPW
LFMM MARSEILLE FIR/UIR SEV TURB FCST WI N4215 E00345 - N4215 E00230 - N4630 E00300 - N4630 E00515 - N4330 E00515 SFC/FL070 STNR NC=



MET'MAP, your aeronautical weather chart ! - Copyright ORBIFLY December 2007 - Disclaimer

ORBIFLY MET'MAP TEAM :

Programming & Development : Alexandra Zaïnal
Concept & Development : Baudouin d'Aumeries
Co-Development & Prog : Marc-Olivier Méhu
Technical & hardware support : Manuel Goepfert

Contact : metmap@orbifly.com




SOURCES & CREDITS :

   NOAA